Terminal Aerodrome Forecast
Issued by NWS Corpus Christi, TX

Home | Current Version | Previous Version | Text Only | Print | Product List | Glossary On
Versions: 1 2 3 4 5 6 7 8 9 10 11 12 13 14 15 16 17 18
623
FTUS44 KCRP 312329
TAFVCT
TAF
KVCT 312329Z 0100/0124 06005KT P6SM BKN100
     FM010300 VRB03KT P6SM SKC
     FM011700 03006KT P6SM VCSH SCT050=

USA.gov is the U.S. government's official web portal to all federal, state and local government web resources and services.